Time;durP1;ratioP1;P1;durP2;ratioP2;P2;SDS_P1;SDS_P2;PMS_P1;PMS_P2;Temp;Humidity;BMP_temperature;BMP_pressure;BME280_temperature;BME280_humidity;BME280_pressure;Samples;Min_cycle;Max_cycle;Signal;HPM_P1;HPM_P2
2022/01/19 00:01:04;;;;;;;7.95;3.30;;;;;;;-1.64;88.08;100256.16;10175897;29;20051;-71
2022/01/19 00:06:05;;;;;;;5.55;2.70;;;;;;;-1.60;86.92;100254.19;10175953;29;20040;-70
2022/01/19 00:11:07;;;;;;;4.85;2.90;;;;;;;-1.79;87.23;100235.41;10174743;29;20505;-70
2022/01/19 00:16:09;;;;;;;6.80;2.53;;;;;;;-1.72;87.27;100278.38;10174806;29;20044;-70
2022/01/19 00:21:11;;;;;;;9.15;2.55;;;;;;;-2.12;87.52;100200.88;10175516;29;20186;-70
2022/01/19 00:26:12;;;;;;;4.25;2.45;;;;;;;-1.57;87.80;100282.66;10174160;29;20040;-70
2022/01/19 00:31:12;;;;;;;5.47;2.90;;;;;;;-1.77;87.36;100236.13;10174112;29;20477;-70
2022/01/19 00:36:13;;;;;;;4.40;2.58;;;;;;;-1.63;87.12;100278.66;10173802;29;20174;-70
2022/01/19 00:41:14;;;;;;;6.03;2.88;;;;;;;-1.78;87.50;100266.53;10174151;29;20043;-70
2022/01/19 00:46:15;;;;;;;4.95;2.80;;;;;;;-1.76;87.76;100243.03;10174028;29;20064;-70
2022/01/19 00:51:16;;;;;;;4.97;3.00;;;;;;;-1.58;88.22;100280.16;10174700;29;20088;-70
2022/01/19 00:56:16;;;;;;;5.30;3.08;;;;;;;-1.53;88.45;100294.56;10173878;29;20523;-70
2022/01/19 01:01:17;;;;;;;5.45;3.05;;;;;;;-1.48;88.13;100309.94;10173480;29;20066;-70
2022/01/19 01:06:20;;;;;;;4.70;2.67;;;;;;;-1.73;88.42;100254.09;10169436;29;20465;-73
2022/01/19 01:11:28;;;;;;;5.68;2.97;;;;;;;-1.39;87.90;100301.56;10173573;29;20040;-70
2022/01/19 01:16:36;;;;;;;4.65;2.70;;;;;;;-1.35;87.41;100310.03;10172638;29;20051;-70
2022/01/19 01:21:37;;;;;;;10.23;3.03;;;;;;;-1.67;87.73;100295.41;10172841;29;20051;-70
2022/01/19 01:26:39;;;;;;;4.63;2.47;;;;;;;-1.84;87.88;100259.94;10172336;29;20047;-70
2022/01/19 01:31:40;;;;;;;6.05;2.85;;;;;;;-1.25;87.97;100337.22;10173325;29;20051;-70
2022/01/19 01:36:41;;;;;;;5.20;2.70;;;;;;;-1.69;87.76;100254.75;10172664;29;20071;-70
2022/01/19 01:41:42;;;;;;;4.85;2.67;;;;;;;-1.41;88.13;100296.44;10172557;29;20059;-70
2022/01/19 01:46:48;;;;;;;10.50;3.08;;;;;;;-1.18;87.87;100344.56;10172733;29;20099;-70
2022/01/19 01:57:08;;;;;;;5.53;2.70;;;;;;;-1.29;88.15;100336.53;10171986;29;20406;-70
2022/01/19 02:02:09;;;;;;;4.53;2.40;;;;;;;-1.42;87.48;100340.81;10171564;29;20040;-70
2022/01/19 02:23:20;;;;;;;4.05;2.35;;;;;;;-1.79;87.83;100345.59;10178876;29;20039;-71
2022/01/19 02:44:36;;;;;;;4.43;2.55;;;;;;;-2.03;88.01;100379.09;10178653;29;20555;-70
2022/01/19 02:49:38;;;;;;;5.25;2.63;;;;;;;-2.26;88.23;100359.56;10178509;29;20056;-70
2022/01/19 02:54:39;;;;;;;5.25;2.47;;;;;;;-2.14;88.21;100387.50;10177080;29;20088;-69
2022/01/19 03:10:21;;;;;;;5.15;2.40;;;;;;;-2.11;88.46;100391.69;10058585;29;20053;-69
2022/01/19 03:15:22;;;;;;;8.98;2.78;;;;;;;-2.27;88.00;100377.84;10119800;29;20176;-69
2022/01/19 03:20:24;;;;;;;3.88;2.25;;;;;;;-2.33;88.30;100402.47;10137812;29;20072;-69
2022/01/19 03:25:26;;;;;;;3.70;2.25;;;;;;;-2.45;88.17;100406.56;10137984;29;20577;-69
2022/01/19 03:30:26;;;;;;;5.03;2.20;;;;;;;-2.60;88.33;100377.03;10151282;29;20056;-70
2022/01/19 03:35:28;;;;;;;4.55;2.58;;;;;;;-2.79;88.30;100360.72;10176268;29;20047;-69
2022/01/19 03:40:29;;;;;;;4.30;2.20;;;;;;;-2.80;88.66;100364.25;10175364;29;20040;-69
2022/01/19 03:45:32;;;;;;;4.55;2.03;;;;;;;-2.53;89.02;100413.94;10175244;29;20048;-69
2022/01/19 03:50:34;;;;;;;5.03;3.15;;;;;;;-2.68;88.65;100383.56;10176237;29;20075;-69
2022/01/19 03:55:35;;;;;;;4.90;2.30;;;;;;;-2.52;88.85;100428.63;10175701;29;20114;-69
2022/01/19 04:00:41;;;;;;;4.90;2.40;;;;;;;-2.71;88.49;100404.53;10176340;29;20048;-69
2022/01/19 04:06:07;;;;;;;5.38;2.65;;;;;;;-2.61;88.67;100445.56;10175793;29;20051;-69
2022/01/19 04:11:05;;;;;;;6.50;3.47;;;;;;;-3.37;88.32;100345.63;10151070;29;20048;-69
2022/01/19 04:16:06;;;;;;;8.20;2.78;;;;;;;-2.87;88.66;100433.94;10174555;29;20425;-69
2022/01/19 04:21:07;;;;;;;5.50;2.58;;;;;;;-2.70;88.35;100469.44;10175075;29;20051;-68
2022/01/19 04:26:08;;;;;;;8.07;2.97;;;;;;;-2.71;88.54;100452.16;10175201;29;20047;-70
2022/01/19 04:31:09;;;;;;;4.90;2.60;;;;;;;-3.28;88.54;100351.19;10173654;29;20047;-69
2022/01/19 04:47:51;;;;;;;14.43;3.40;;;;;;;-2.54;88.77;100459.09;10172964;29;20044;-72
2022/01/19 05:03:07;;;;;;;10.10;5.45;;;;;;;-3.10;88.22;100358.94;10173079;29;20044;-69
2022/01/19 05:08:18;;;;;;;12.48;5.82;;;;;;;-2.50;88.83;100425.94;10171912;29;20048;-69
2022/01/19 05:13:30;;;;;;;12.50;4.22;;;;;;;-1.99;88.43;100495.13;10172608;29;20102;-69
2022/01/19 05:18:32;;;;;;;5.95;3.88;;;;;;;-1.80;88.51;100504.53;10173747;29;20135;-70
2022/01/19 05:23:32;;;;;;;16.52;7.82;;;;;;;-1.90;88.47;100465.16;10172465;29;20091;-70
2022/01/19 05:28:33;;;;;;;8.00;3.83;;;;;;;-1.78;88.39;100485.28;10171323;29;20572;-70
2022/01/19 05:33:35;;;;;;;28.80;15.27;;;;;;;-1.49;88.03;100517.53;10171512;29;20036;-70
2022/01/19 05:38:35;;;;;;;11.07;5.00;;;;;;;-2.36;88.59;100359.25;10172789;29;20051;-70
2022/01/19 05:43:36;;;;;;;5.82;3.40;;;;;;;-1.47;88.66;100505.22;10171970;29;20052;-71
2022/01/19 05:48:37;;;;;;;21.23;11.52;;;;;;;-1.05;88.31;100532.34;10171980;29;20111;-69
2022/01/19 05:53:38;;;;;;;12.15;8.02;;;;;;;-1.13;88.55;100492.06;10180817;29;20051;-72
2022/01/19 05:58:38;;;;;;;10.82;6.53;;;;;;;-1.72;87.75;100362.53;10179951;29;20055;-70
2022/01/19 06:03:39;;;;;;;9.05;4.60;;;;;;;-0.50;87.45;100536.94;10180583;29;20040;-70
2022/01/19 06:08:43;;;;;;;10.85;4.20;;;;;;;-1.67;86.85;100336.25;10180582;29;20081;-70
2022/01/19 06:13:43;;;;;;;8.38;5.15;;;;;;;-0.35;87.29;100531.72;10178332;29;20131;-70
2022/01/19 06:18:44;;;;;;;18.85;11.55;;;;;;;-0.57;87.22;100488.66;10179431;29;20135;-70
2022/01/19 06:23:45;;;;;;;7.18;4.07;;;;;;;-1.90;86.31;100273.31;10178801;29;20055;-70
2022/01/19 06:28:46;;;;;;;7.68;3.33;;;;;;;-1.23;86.62;100370.06;10179348;29;20059;-71
2022/01/19 06:33:47;;;;;;;7.22;3.75;;;;;;;-0.61;87.33;100478.50;10179546;29;20054;-71
2022/01/19 06:38:47;;;;;;;6.43;3.40;;;;;;;-0.27;87.75;100532.06;10179430;29;20501;-71
2022/01/19 06:43:48;;;;;;;35.03;17.35;;;;;;;-1.10;87.40;100367.56;10179047;29;20191;-71
2022/01/19 06:48:49;;;;;;;8.70;4.65;;;;;;;0.21;87.70;100571.78;10178607;29;20067;-71
2022/01/19 06:53:52;;;;;;;13.10;6.55;;;;;;;0.19;87.95;100548.34;10179080;29;20103;-71
2022/01/19 06:58:53;;;;;;;12.63;5.95;;;;;;;-0.53;88.14;100390.16;10178574;29;20472;-72
2022/01/19 07:03:54;;;;;;;14.90;7.97;;;;;;;0.66;87.48;100554.94;10177820;29;20465;-71
2022/01/19 07:08:55;;;;;;;11.30;5.82;;;;;;;0.02;87.35;100441.47;10177844;29;20040;-72
2022/01/19 07:13:57;;;;;;;16.15;8.00;;;;;;;0.80;87.27;100582.78;10178203;29;20047;-71
2022/01/19 07:18:58;;;;;;;8.50;5.47;;;;;;;0.80;87.40;100546.19;10177590;29;20040;-72
2022/01/19 07:23:58;;;;;;;8.30;4.85;;;;;;;0.86;86.73;100548.41;10176735;29;20048;-71
2022/01/19 07:28:59;;;;;;;8.68;4.55;;;;;;;0.71;86.62;100510.19;10177643;29;20075;-71
2022/01/19 07:34:00;;;;;;;17.27;4.97;;;;;;;1.13;86.01;100544.88;10176850;29;20036;-71
2022/01/19 07:39:01;;;;;;;9.45;5.07;;;;;;;1.21;86.28;100531.31;10175055;29;20047;-71
2022/01/19 07:44:02;;;;;;;14.18;7.95;;;;;;;1.06;86.07;100493.94;10175444;29;20400;-72
2022/01/19 07:49:03;;;;;;;6.55;4.10;;;;;;;0.70;85.80;100403.94;10176747;29;20068;-72
2022/01/19 07:54:04;;;;;;;8.57;4.65;;;;;;;1.56;85.64;100521.06;10175689;29;20047;-71
2022/01/19 07:59:05;;;;;;;9.02;5.10;;;;;;;1.18;84.51;100455.63;10174111;29;20064;-72
2022/01/19 08:04:06;;;;;;;8.35;5.60;;;;;;;1.20;83.86;100451.97;10174241;29;20048;-71
2022/01/19 08:09:07;;;;;;;6.07;3.88;;;;;;;1.56;83.05;100492.25;10176075;29;20404;-71
2022/01/19 08:14:08;;;;;;;6.80;3.85;;;;;;;1.56;82.32;100500.94;10174476;29;20051;-72
2022/01/19 08:19:08;;;;;;;9.43;5.45;;;;;;;1.26;82.10;100456.78;10175758;29;20043;-72
2022/01/19 08:24:09;;;;;;;8.35;5.05;;;;;;;0.87;81.64;100371.41;10174881;29;20047;-72
2022/01/19 08:29:10;;;;;;;7.40;4.32;;;;;;;1.47;81.23;100444.00;10175752;29;20107;-72
2022/01/19 08:34:11;;;;;;;8.35;4.40;;;;;;;0.79;81.29;100311.78;10175173;29;20044;-72
2022/01/19 08:39:11;;;;;;;15.45;5.65;;;;;;;1.04;80.35;100352.75;10174571;29;20516;-72
2022/01/19 08:44:12;;;;;;;8.10;3.88;;;;;;;1.94;79.86;100488.72;10172454;29;20535;-72
2022/01/19 08:49:15;;;;;;;8.43;4.03;;;;;;;0.44;79.33;100231.38;10174903;29;20094;-72
2022/01/19 08:54:16;;;;;;;8.75;5.20;;;;;;;1.99;78.51;100455.16;10173387;29;20040;-72
2022/01/19 08:59:16;;;;;;;7.25;4.18;;;;;;;1.36;77.94;100347.06;10173746;29;20067;-71
2022/01/19 09:04:18;;;;;;;7.60;4.50;;;;;;;1.92;77.17;100443.47;10174090;29;20134;-72
2022/01/19 09:09:20;;;;;;;6.72;4.35;;;;;;;1.95;77.09;100449.31;10173399;29;20048;-72
2022/01/19 09:14:21;;;;;;;7.63;4.82;;;;;;;1.39;76.39;100354.69;10173267;29;20044;-71
2022/01/19 09:19:22;;;;;;;10.13;5.18;;;;;;;1.68;76.62;100393.69;10172767;29;20039;-71
2022/01/19 09:24:22;;;;;;;9.25;5.38;;;;;;;0.42;75.85;100209.78;10171439;29;20054;-71
2022/01/19 09:29:23;;;;;;;14.18;6.13;;;;;;;0.91;76.75;100282.16;10173658;29;20052;-72
2022/01/19 09:34:24;;;;;;;11.35;7.03;;;;;;;1.90;76.55;100447.97;10173539;29;20111;-72
2022/01/19 09:39:26;;;;;;;9.88;5.40;;;;;;;1.17;76.76;100305.66;10172761;29;20091;-72
2022/01/19 09:44:31;;;;;;;9.32;4.97;;;;;;;2.06;75.60;100451.16;10171006;29;20612;-72
2022/01/19 09:49:32;;;;;;;20.35;5.07;;;;;;;1.85;74.58;100403.75;10172401;29;20064;-72
2022/01/19 09:54:32;;;;;;;6.43;3.88;;;;;;;1.94;73.00;100400.47;10172741;29;20419;-72
2022/01/19 09:59:34;;;;;;;5.85;3.67;;;;;;;2.36;72.45;100499.69;10171793;29;20047;-71
2022/01/19 10:04:39;;;;;;;7.85;4.40;;;;;;;0.90;73.18;100245.66;10172309;29;20484;-72
2022/01/19 10:09:52;;;;;;;7.43;4.53;;;;;;;1.56;71.74;100356.09;10171053;29;20040;-73
2022/01/19 10:20:22;;;;;;;9.65;4.50;;;;;;;2.03;72.49;100473.19;10171880;29;20068;-71
2022/01/19 10:25:23;;;;;;;7.03;5.03;;;;;;;1.92;72.58;100491.44;10171763;29;20525;-70
2022/01/19 10:30:25;;;;;;;6.85;4.88;;;;;;;1.96;71.81;100513.03;10171511;29;20044;-71
2022/01/19 10:35:29;;;;;;;6.82;4.72;;;;;;;1.75;72.64;100479.53;10172541;29;20047;-73
2022/01/19 10:40:30;;;;;;;8.48;5.43;;;;;;;0.74;73.14;100350.47;10176746;29;20397;-72
2022/01/19 10:45:32;;;;;;;8.25;5.28;;;;;;;1.45;73.18;100465.97;10178459;29;20044;-71
2022/01/19 10:50:33;;;;;;;7.63;4.95;;;;;;;1.60;73.31;100497.16;10178340;29;20067;-72
2022/01/19 10:55:40;;;;;;;8.07;4.72;;;;;;;1.72;73.98;100490.22;10178441;29;20424;-71
2022/01/19 11:00:54;;;;;;;7.25;4.43;;;;;;;0.91;74.00;100373.69;10176315;29;20039;-71
2022/01/19 11:05:59;;;;;;;9.88;5.80;;;;;;;1.53;74.05;100495.09;10177534;29;20493;-71
2022/01/19 11:11:02;;;;;;;14.38;8.55;;;;;;;0.56;74.59;100344.72;10177747;29;20047;-71
2022/01/19 11:16:04;;;;;;;13.38;8.02;;;;;;;1.36;74.96;100470.91;10178251;29;20569;-71
2022/01/19 11:21:11;;;;;;;9.52;5.80;;;;;;;1.57;74.92;100507.00;10176233;29;20040;-71
2022/01/19 11:26:16;;;;;;;9.10;4.95;;;;;;;1.50;75.04;100504.00;10177446;29;20135;-72
2022/01/19 11:31:24;;;;;;;7.82;4.82;;;;;;;1.48;76.16;100507.66;10177469;29;20125;-71
2022/01/19 11:36:30;;;;;;;7.65;5.30;;;;;;;1.40;76.79;100489.84;10176934;29;20044;-72
2022/01/19 11:41:42;;;;;;;8.93;5.53;;;;;;;1.63;76.20;100514.44;10177119;29;20055;-72
2022/01/19 11:46:52;;;;;;;10.80;5.95;;;;;;;0.06;76.78;100273.22;10176477;29;20044;-72
2022/01/19 11:51:55;;;;;;;9.90;5.18;;;;;;;0.79;77.00;100415.53;10176495;29;20060;-73
2022/01/19 11:56:59;;;;;;;10.35;6.07;;;;;;;1.60;77.45;100549.53;10175543;29;20071;-72
2022/01/19 12:02:24;;;;;;;10.80;5.90;;;;;;;1.55;77.74;100542.94;10175816;29;20036;-74
2022/01/19 12:07:35;;;;;;;8.98;5.40;;;;;;;1.43;77.52;100543.78;10175823;29;20084;-72
2022/01/19 12:12:43;;;;;;;8.60;4.03;;;;;;;0.89;76.64;100495.88;10173749;29;20048;-72
2022/01/19 12:17:54;;;;;;;5.57;3.05;;;;;;;0.53;73.97;100440.81;10168036;29;20036;-72
2022/01/19 12:23:31;;;;;;;2.33;1.08;;;;;;;0.97;64.40;100559.94;10166292;29;20535;-72
2022/01/19 12:28:51;;;;;;;3.90;1.50;;;;;;;0.92;65.65;100562.84;10170351;29;20119;-72
2022/01/19 12:34:05;;;;;;;4.50;1.60;;;;;;;0.70;65.19;100534.66;10172772;29;20075;-70
2022/01/19 12:39:28;;;;;;;2.92;1.90;;;;;;;0.82;65.35;100562.63;10172842;29;20050;-71
2022/01/19 12:44:35;;;;;;;3.47;1.83;;;;;;;0.85;64.36;100572.03;10153489;29;20052;-72
2022/01/19 12:49:36;;;;;;;4.22;2.10;;;;;;;0.03;65.63;100422.28;10158821;29;20064;-72
2022/01/19 12:54:36;;;;;;;6.63;2.83;;;;;;;0.58;65.64;100525.00;10174208;29;20493;-73
2022/01/19 12:59:38;;;;;;;6.13;2.97;;;;;;;0.88;65.12;100577.91;10160372;29;20493;-70
2022/01/19 13:04:41;;;;;;;4.25;1.95;;;;;;;0.38;64.98;100524.50;10171722;29;20048;-70
2022/01/19 13:15:12;;;;;;;8.65;2.83;;;;;;;-0.27;66.87;100418.06;10173318;29;20044;-71
2022/01/19 13:20:17;;;;;;;9.60;4.50;;;;;;;0.72;66.95;100576.38;10172900;29;20108;-69
2022/01/19 13:25:28;;;;;;;13.95;3.70;;;;;;;0.82;67.40;100601.00;10172398;29;20040;-70
2022/01/19 13:30:32;;;;;;;11.93;6.70;;;;;;;0.24;67.19;100508.88;10170145;29;20107;-71
2022/01/19 13:35:32;;;;;;;5.45;3.53;;;;;;;0.23;67.78;100522.88;10162748;29;20054;-71
2022/01/19 13:40:33;;;;;;;6.15;3.20;;;;;;;-0.39;68.12;100433.66;10167060;29;20513;-71
2022/01/19 13:51:04;;;;;;;6.95;2.70;;;;;;;-0.40;68.46;100468.50;10166592;29;20072;-70
2022/01/19 13:56:11;;;;;;;11.57;3.10;;;;;;;-0.88;68.58;100402.75;10158297;29;20048;-70
2022/01/19 14:01:19;;;;;;;8.68;2.80;;;;;;;-0.29;68.63;100511.31;10159721;29;20055;-71
2022/01/19 14:06:21;;;;;;;8.85;3.33;;;;;;;0.29;69.26;100610.47;10163742;29;20044;-71
2022/01/19 14:11:24;;;;;;;8.57;3.75;;;;;;;-0.69;69.10;100473.72;10170148;29;20461;-70
2022/01/19 14:16:36;;;;;;;9.23;4.13;;;;;;;-1.11;68.92;100401.53;10176808;29;20048;-71
2022/01/19 14:22:09;;;;;;;9.70;3.13;;;;;;;0.42;69.42;100654.06;10175355;29;20072;-72
2022/01/19 14:27:13;;;;;;;4.57;2.70;;;;;;;0.29;70.30;100655.72;10174606;29;20465;-71
2022/01/19 14:32:14;;;;;;;;;;;;;;;0.14;70.81;100660.13;10177195;29;20079;-72
2022/01/19 14:37:20;;;;;;;2.20;1.23;;;;;;;-1.12;70.95;100515.41;10177511;29;19972;-71
2022/01/19 14:42:25;;;;;;;3.50;2.00;;;;;;;-0.27;71.24;100666.09;10176535;29;20052;-72
2022/01/19 14:47:38;;;;;;;5.53;3.00;;;;;;;-0.70;71.47;100597.28;10154605;29;20065;-70
2022/01/19 14:52:38;;;;;;;5.20;3.20;;;;;;;-0.21;71.31;100662.25;10154496;29;20164;-70
2022/01/19 14:57:39;;;;;;;5.32;2.88;;;;;;;-0.31;71.76;100646.28;10178749;29;20079;-69
2022/01/19 15:02:40;;;;;;;9.05;2.80;;;;;;;-1.29;71.90;100486.88;10147972;29;20051;-70
2022/01/19 15:07:41;;;;;;;4.82;2.58;;;;;;;-0.38;72.63;100641.53;10142286;29;20055;-70
2022/01/19 15:12:42;;;;;;;4.45;2.88;;;;;;;-1.11;72.42;100522.28;10177856;29;20043;-70
2022/01/19 15:17:43;;;;;;;6.88;3.47;;;;;;;-1.00;72.88;100551.19;10160085;29;20064;-69
2022/01/19 15:22:45;;;;;;;6.13;3.35;;;;;;;-1.10;73.14;100547.44;10175266;29;20050;-69
2022/01/19 15:27:46;;;;;;;5.47;2.90;;;;;;;-0.58;73.79;100643.53;10176442;29;20040;-70
2022/01/19 15:32:47;;;;;;;9.10;4.80;;;;;;;-0.33;74.56;100689.06;10177278;29;20072;-70
2022/01/19 15:37:50;;;;;;;6.22;3.17;;;;;;;-0.54;74.42;100650.28;10176054;29;20051;-72
2022/01/19 15:42:52;;;;;;;6.00;3.50;;;;;;;-0.58;74.84;100646.16;10177094;29;20055;-70
2022/01/19 15:47:52;;;;;;;6.70;4.15;;;;;;;-0.37;74.79;100680.59;10176545;29;20044;-71
2022/01/19 15:52:54;;;;;;;15.70;5.70;;;;;;;-0.97;74.63;100591.91;10175277;29;20092;-71
2022/01/19 15:57:55;;;;;;;8.68;5.30;;;;;;;-2.70;74.50;100321.22;10175890;29;20140;-70
2022/01/19 16:02:56;;;;;;;9.43;5.47;;;;;;;-0.86;75.65;100626.03;10172870;29;20552;-72
2022/01/19 16:07:57;;;;;;;7.78;4.35;;;;;;;-0.57;76.06;100660.88;10166519;29;20046;-69
2022/01/19 16:12:58;;;;;;;7.15;4.28;;;;;;;-0.71;75.75;100651.25;10168479;29;20032;-70
2022/01/19 16:17:59;;;;;;;8.15;4.10;;;;;;;-0.63;75.64;100673.44;10169096;29;20131;-70
2022/01/19 16:28:20;;;;;;;7.20;3.72;;;;;;;-1.23;76.48;100590.78;10168010;29;20044;-70
2022/01/19 16:33:21;;;;;;;5.28;3.58;;;;;;;-0.58;76.26;100682.66;10169789;29;20039;-69
2022/01/19 16:38:22;;;;;;;6.35;3.63;;;;;;;-0.79;76.68;100658.66;10169267;29;20044;-69
2022/01/19 16:43:27;;;;;;;7.10;4.03;;;;;;;-0.53;76.34;100718.97;10169509;29;20676;-70
2022/01/19 16:48:28;;;;;;;6.43;3.97;;;;;;;-0.54;76.50;100719.88;10169362;29;20044;-70
2022/01/19 16:53:32;;;;;;;10.13;4.30;;;;;;;-1.91;76.47;100479.09;10169639;29;20163;-69
2022/01/19 16:58:35;;;;;;;7.43;3.97;;;;;;;-0.40;76.99;100721.69;10169311;29;20047;-69
2022/01/19 17:03:37;;;;;;;7.75;4.40;;;;;;;-0.53;76.66;100706.75;10165602;29;20047;-70
2022/01/19 17:08:41;;;;;;;11.77;4.63;;;;;;;-1.48;76.48;100552.22;10169582;29;20698;-70
2022/01/19 17:13:53;;;;;;;8.70;4.10;;;;;;;-1.03;77.21;100626.16;10168304;29;20091;-70
2022/01/19 17:18:54;;;;;;;11.07;4.75;;;;;;;-0.64;76.91;100690.03;10169208;29;20048;-70
2022/01/19 17:23:56;;;;;;;6.10;4.05;;;;;;;-0.39;77.05;100729.44;10168776;29;20518;-70
2022/01/19 17:28:57;;;;;;;8.80;4.65;;;;;;;-0.74;77.09;100671.44;10165404;29;20044;-70
2022/01/19 17:33:59;;;;;;;7.20;4.40;;;;;;;-0.51;77.51;100724.91;10168216;29;20382;-70
2022/01/19 17:39:00;;;;;;;10.10;4.63;;;;;;;-1.20;77.75;100607.09;10167498;29;20032;-70
2022/01/19 17:44:01;;;;;;;8.65;4.82;;;;;;;-0.64;77.84;100696.06;10190702;29;20040;-70
2022/01/19 17:49:06;;;;;;;8.02;4.85;;;;;;;-1.52;77.37;100530.72;10172464;29;20035;-70
2022/01/19 17:54:08;;;;;;;7.50;5.18;;;;;;;-0.75;77.29;100643.66;10174611;29;20079;-71
2022/01/19 17:59:09;;;;;;;9.02;4.65;;;;;;;-1.13;78.16;100589.34;10175887;29;20048;-70
2022/01/19 18:04:10;;;;;;;11.15;5.22;;;;;;;-1.53;76.98;100521.22;10172715;29;20047;-71
2022/01/19 18:09:11;;;;;;;8.20;5.10;;;;;;;-1.02;77.02;100615.63;10174005;29;20036;-70
2022/01/19 18:14:11;;;;;;;9.23;5.57;;;;;;;-0.46;77.61;100702.84;10175344;29;20043;-70
2022/01/19 18:19:12;;;;;;;9.25;6.60;;;;;;;-0.59;76.90;100696.66;10176309;29;20432;-69
2022/01/19 18:24:13;;;;;;;8.55;5.43;;;;;;;-0.42;77.09;100723.53;10174830;29;20512;-69
2022/01/19 18:29:14;;;;;;;8.10;4.38;;;;;;;-0.43;77.39;100698.38;10173347;29;20844;-70
2022/01/19 18:34:15;;;;;;;6.57;4.35;;;;;;;-0.20;77.20;100734.44;10197195;29;20048;-70
2022/01/19 18:39:16;;;;;;;8.18;4.88;;;;;;;-0.42;77.56;100698.28;10172554;29;20218;-69
2022/01/19 18:44:17;;;;;;;11.23;6.10;;;;;;;-0.34;77.26;100705.69;10178873;29;20393;-70
2022/01/19 18:49:18;;;;;;;12.50;5.82;;;;;;;-1.18;77.24;100563.53;10178355;29;20048;-69
2022/01/19 18:54:18;;;;;;;12.50;5.90;;;;;;;-0.27;77.68;100723.53;10178957;29;20060;-70
2022/01/19 18:59:19;;;;;;;13.68;6.10;;;;;;;-0.29;78.03;100717.53;10177116;29;20040;-70
2022/01/19 19:04:20;;;;;;;11.65;6.57;;;;;;;-1.21;77.76;100568.06;10156102;29;20060;-70
2022/01/19 19:09:23;;;;;;;12.73;6.40;;;;;;;-0.31;78.56;100731.59;10153001;29;20114;-70
2022/01/19 19:14:25;;;;;;;12.32;6.22;;;;;;;-0.39;77.90;100733.81;10138649;29;20450;-70
2022/01/19 19:19:28;;;;;;;12.90;6.63;;;;;;;-1.69;78.08;100517.81;10138237;29;20044;-70
2022/01/19 19:24:28;;;;;;;12.63;6.78;;;;;;;-0.53;78.26;100725.00;10137855;29;20052;-70
2022/01/19 19:29:29;;;;;;;12.05;7.07;;;;;;;-0.86;78.44;100677.38;10138303;29;20044;-70
2022/01/19 19:34:30;;;;;;;15.88;6.75;;;;;;;-1.46;79.00;100568.63;10138483;29;20051;-70
2022/01/19 19:39:31;;;;;;;12.35;6.47;;;;;;;-0.78;78.96;100696.88;10136262;29;20075;-70
2022/01/19 19:44:32;;;;;;;12.38;6.47;;;;;;;-0.71;79.59;100737.34;10137661;29;20143;-71
2022/01/19 19:49:33;;;;;;;15.57;6.70;;;;;;;-1.56;80.01;100588.28;10151445;29;20120;-70
2022/01/19 19:54:34;;;;;;;11.85;6.53;;;;;;;-1.70;79.87;100571.66;10138171;29;20088;-71
2022/01/19 19:59:35;;;;;;;10.00;5.60;;;;;;;-0.58;79.93;100758.34;10137801;29;20081;-70
2022/01/19 20:04:36;;;;;;;9.70;5.65;;;;;;;-1.03;80.64;100686.97;10136989;29;20092;-69
2022/01/19 20:09:37;;;;;;;9.98;6.05;;;;;;;-0.60;80.47;100747.19;10136678;29;20049;-70
2022/01/19 20:14:37;;;;;;;12.07;7.00;;;;;;;-1.15;80.15;100656.34;10135387;29;20131;-69
2022/01/19 20:19:38;;;;;;;8.65;5.03;;;;;;;-0.68;78.92;100748.53;10135225;29;20482;-69
2022/01/19 20:24:39;;;;;;;7.32;4.57;;;;;;;-1.38;77.83;100623.75;10136242;29;20048;-69
2022/01/19 20:29:41;;;;;;;7.53;4.35;;;;;;;-1.18;76.44;100665.19;10135856;29;20041;-69
2022/01/19 20:34:43;;;;;;;7.97;4.88;;;;;;;-0.76;75.07;100764.59;10135368;29;20040;-69
2022/01/19 20:39:44;;;;;;;8.63;4.93;;;;;;;-0.80;75.22;100739.63;10134772;29;20121;-69
2022/01/19 20:44:45;;;;;;;7.30;4.43;;;;;;;-1.14;74.42;100710.16;10134848;29;20135;-69
2022/01/19 20:49:46;;;;;;;7.88;5.03;;;;;;;-0.94;73.93;100735.16;10135384;29;20049;-69
2022/01/19 20:54:46;;;;;;;8.30;4.68;;;;;;;-1.58;74.19;100619.66;10135993;29;20119;-69
2022/01/19 20:59:47;;;;;;;12.23;5.03;;;;;;;-0.93;73.70;100734.22;10135725;29;20135;-69
2022/01/19 21:04:48;;;;;;;7.82;3.88;;;;;;;-1.36;73.66;100684.44;10134590;29;20048;-69
2022/01/19 21:09:52;;;;;;;7.35;4.57;;;;;;;-1.04;73.68;100726.16;10134554;29;20037;-69
2022/01/19 21:14:53;;;;;;;9.38;5.20;;;;;;;-1.01;73.37;100726.00;10133723;29;20448;-69
2022/01/19 21:19:54;;;;;;;11.15;6.30;;;;;;;-1.41;72.76;100670.81;10134044;29;20048;-69
2022/01/19 21:24:55;;;;;;;7.90;5.30;;;;;;;-1.35;73.46;100678.28;10132889;29;20462;-69
2022/01/19 21:29:56;;;;;;;7.57;4.72;;;;;;;-0.88;73.35;100739.19;10133432;29;20072;-69
2022/01/19 21:34:57;;;;;;;7.15;4.80;;;;;;;-1.10;73.46;100719.53;10133320;29;20075;-69
2022/01/19 21:39:58;;;;;;;9.07;4.68;;;;;;;-2.57;73.63;100477.47;10133533;29;20044;-69
2022/01/19 21:44:59;;;;;;;7.18;4.28;;;;;;;-1.06;73.27;100728.84;10133769;29;20048;-69
2022/01/19 21:50:02;;;;;;;7.18;4.57;;;;;;;-0.96;74.00;100739.59;10133798;29;20044;-69
2022/01/19 21:55:05;;;;;;;10.68;4.90;;;;;;;-1.02;73.86;100732.97;10133072;29;20079;-69
2022/01/19 22:00:09;;;;;;;7.20;4.50;;;;;;;-0.92;74.09;100741.97;10133470;29;20040;-69
2022/01/19 22:05:12;;;;;;;6.00;4.15;;;;;;;-1.18;73.40;100724.31;10132020;29;20502;-69
2022/01/19 22:10:13;;;;;;;6.78;4.68;;;;;;;-2.53;74.07;100502.38;10133429;29;20049;-69
2022/01/19 22:15:13;;;;;;;8.10;5.45;;;;;;;-0.94;74.53;100754.25;10132123;29;20119;-69
2022/01/19 22:20:14;;;;;;;8.07;5.38;;;;;;;-1.08;73.96;100728.09;10132988;29;20044;-69
2022/01/19 22:25:16;;;;;;;7.38;4.32;;;;;;;-1.01;73.99;100759.91;10132418;29;20045;-69
2022/01/19 22:30:17;;;;;;;7.63;4.68;;;;;;;-1.04;74.99;100749.63;10133315;29;20077;-69
2022/01/19 22:35:18;;;;;;;7.93;4.85;;;;;;;-1.12;74.74;100749.22;10137081;29;20040;-69
2022/01/19 22:40:19;;;;;;;7.72;4.55;;;;;;;-1.31;74.63;100705.06;10140345;29;20525;-69
2022/01/19 22:45:20;;;;;;;7.72;4.85;;;;;;;-1.73;74.41;100643.91;10140382;29;20044;-69
2022/01/19 22:50:21;;;;;;;8.98;5.15;;;;;;;-1.19;75.29;100761.75;10139407;29;20067;-70
2022/01/19 22:55:24;;;;;;;8.85;4.68;;;;;;;-1.30;74.93;100730.19;10138282;29;20091;-69
2022/01/19 23:00:25;;;;;;;13.30;7.82;;;;;;;-0.99;74.61;100776.28;10139981;29;20146;-69
2022/01/19 23:05:26;;;;;;;10.25;5.60;;;;;;;-0.92;74.94;100777.66;10139293;29;20768;-69
2022/01/19 23:10:27;;;;;;;19.60;12.95;;;;;;;-0.88;74.75;100783.53;10139484;29;20044;-70
2022/01/19 23:15:28;;;;;;;10.18;6.88;;;;;;;-0.87;74.40;100790.41;10138842;29;20048;-69
2022/01/19 23:20:29;;;;;;;9.80;6.32;;;;;;;-1.07;74.41;100753.25;10139216;29;20108;-69
2022/01/19 23:25:30;;;;;;;20.08;12.32;;;;;;;-1.16;74.04;100756.34;10138560;29;20053;-69
2022/01/19 23:30:31;;;;;;;10.30;6.57;;;;;;;-1.15;74.23;100779.72;10136965;29;20497;-69
2022/01/19 23:35:33;;;;;;;7.53;5.25;;;;;;;-0.98;74.56;100798.84;10139101;29;20107;-69
2022/01/19 23:50:45;;;;;;;9.48;6.32;;;;;;;-0.97;74.35;100784.88;10137613;29;20169;-69
2022/01/19 23:55:46;;;;;;;11.10;6.00;;;;;;;-1.83;74.13;100654.78;10136332;29;20071;-69
